Time;durP1;ratioP1;P1;durP2;ratioP2;P2;SDS_P1;SDS_P2;PMS_P1;PMS_P2;Temp;Humidity;BMP_temperature;BMP_pressure;BME280_temperature;BME280_humidity;BME280_pressure;Samples;Min_cycle;Max_cycle;Signal;HPM_P1;HPM_P2
2022/12/17 13:06:55;;;;;;;37.50;17.25;;;;;;;-3.44;87.18;102213.00;5106171;28;20141;-52
2022/12/17 13:09:32;;;;;;;42.67;18.00;;;;;;;-3.54;87.91;102220.97;5074967;28;20051;-50
2022/12/17 13:15:00;;;;;;;43.50;18.38;;;;;;;-3.35;87.81;102202.47;5077867;27;20426;-54
2022/12/17 13:17:49;;;;;;;35.10;15.90;;;;;;;-3.18;86.60;102207.34;5059385;28;20048;-54
2022/12/17 13:20:29;;;;;;;36.95;16.52;;;;;;;-3.13;86.34;102210.69;5089820;28;20048;-55
2022/12/17 13:23:24;;;;;;;39.78;17.13;;;;;;;-3.05;86.08;102208.81;5046279;28;20064;-55
2022/12/17 13:26:12;;;;;;;37.65;17.30;;;;;;;-3.01;85.07;102210.44;5087047;28;20052;-54
2022/12/17 13:28:39;;;;;;;40.58;18.27;;;;;;;-3.29;85.54;102208.41;5066190;28;20052;-52
2022/12/17 13:31:19;;;;;;;40.92;18.55;;;;;;;-3.41;85.92;102202.59;5089162;28;20123;-54
2022/12/17 13:34:19;;;;;;;38.65;17.83;;;;;;;-3.51;87.40;102204.47;5090284;28;20109;-51
2022/12/17 13:37:10;;;;;;;40.90;18.35;;;;;;;-3.56;86.92;102198.53;5078133;28;20070;-53
2022/12/17 13:39:50;;;;;;;43.05;18.85;;;;;;;-3.54;87.91;102196.78;5077509;28;20044;-53
2022/12/17 13:42:26;;;;;;;46.80;18.98;;;;;;;-3.47;87.46;102196.63;5081049;28;20055;-52
2022/12/17 13:44:54;;;;;;;44.00;18.63;;;;;;;-3.53;87.52;102188.97;5088120;28;20127;-53
2022/12/17 13:47:25;;;;;;;45.22;18.70;;;;;;;-3.36;86.93;102185.19;5063857;28;20049;-53
2022/12/17 13:49:54;;;;;;;67.05;19.35;;;;;;;-3.32;86.91;102192.03;5058247;28;20055;-53
2022/12/17 13:52:36;;;;;;;47.25;19.42;;;;;;;-3.30;86.63;102198.88;5071841;28;20095;-49
2022/12/17 13:55:15;;;;;;;44.72;19.10;;;;;;;-3.09;86.33;102195.03;5074989;28;20044;-47
2022/12/17 13:57:45;;;;;;;37.67;18.17;;;;;;;-2.95;85.23;102193.88;5071019;28;20131;-48
2022/12/17 14:00:23;;;;;;;46.75;19.75;;;;;;;-2.94;84.73;102187.81;5089766;28;20052;-47
2022/12/17 14:02:51;;;;;;;47.85;19.08;;;;;;;-2.98;84.50;102191.38;5065705;28;20389;-48
2022/12/17 14:05:25;;;;;;;45.17;19.08;;;;;;;-2.85;84.26;102192.81;5091007;28;20052;-49
2022/12/17 14:07:52;;;;;;;47.17;18.85;;;;;;;-2.98;84.22;102196.56;5085658;28;20505;-49
2022/12/17 14:10:20;;;;;;;45.25;18.38;;;;;;;-2.70;83.81;102200.28;5071783;28;20038;-47
2022/12/17 14:12:48;;;;;;;46.35;18.08;;;;;;;-2.72;83.46;102198.59;5086728;28;20048;-46
2022/12/17 14:15:45;;;;;;;47.28;18.40;;;;;;;-2.73;83.53;102194.28;5089230;28;20048;-47
2022/12/17 14:18:16;;;;;;;37.90;17.77;;;;;;;-2.68;83.28;102192.44;5089642;28;20048;-48
2022/12/17 14:20:44;;;;;;;42.88;17.90;;;;;;;-2.59;82.95;102196.59;5089633;28;20135;-48
2022/12/17 14:23:32;;;;;;;39.63;16.88;;;;;;;-2.55;83.06;102200.81;5089678;28;20514;-48
2022/12/17 14:25:59;;;;;;;39.75;17.38;;;;;;;-2.54;82.83;102199.94;5076015;28;20037;-48
2022/12/17 14:28:35;;;;;;;39.60;17.35;;;;;;;-2.51;82.42;102205.06;5075696;28;20055;-47
2022/12/17 14:31:07;;;;;;;37.05;16.20;;;;;;;-2.60;82.08;102207.88;5057239;28;20445;-48
2022/12/17 14:34:07;;;;;;;38.65;15.60;;;;;;;-2.65;82.93;102202.78;5060627;28;20113;-50
2022/12/17 14:36:42;;;;;;;34.92;16.30;;;;;;;-2.90;83.07;102207.63;5076121;28;20063;-48
2022/12/17 14:39:23;;;;;;;37.22;16.33;;;;;;;-2.74;83.14;102206.44;5057964;28;20055;-48
2022/12/17 14:44:49;;;;;;;33.33;15.82;;;;;;;-2.83;83.48;102201.44;5075159;28;20438;-48
2022/12/17 14:47:24;;;;;;;35.70;16.80;;;;;;;-2.75;82.97;102209.06;5075525;28;20048;-48
2022/12/17 14:50:06;;;;;;;34.47;16.30;;;;;;;-2.90;83.38;102211.09;5057652;28;20397;-51
2022/12/17 14:52:38;;;;;;;37.83;15.00;;;;;;;-2.90;83.26;102207.63;5075614;28;20128;-48
2022/12/17 14:55:24;;;;;;;;;;;;;;;-2.82;83.62;102210.94;5075776;28;20478;-47
2022/12/17 14:57:52;;;;;;;34.67;14.32;;;;;;;-2.88;83.80;102205.84;5075240;28;20081;-47
2022/12/17 15:00:20;;;;;;;31.08;14.63;;;;;;;-2.85;83.95;102211.00;5074880;28;20440;-47
2022/12/17 15:02:53;;;;;;;34.47;14.70;;;;;;;-2.84;83.84;102217.88;5075484;28;20056;-48
2022/12/17 15:05:20;;;;;;;28.10;14.23;;;;;;;-2.84;83.94;102212.69;5057516;28;20051;-46
2022/12/17 15:07:46;;;;;;;34.78;15.10;;;;;;;-2.83;84.16;102208.38;5056736;28;20048;-46
2022/12/17 15:10:18;;;;;;;35.03;16.67;;;;;;;-2.83;84.28;102208.38;5075119;28;20060;-47
2022/12/17 15:12:46;;;;;;;;;;;;;;;-2.83;84.55;102216.16;5075059;28;20048;-47
2022/12/17 15:15:14;;;;;;;38.30;14.95;;;;;;;-2.83;84.28;102216.16;5074738;28;19920;-50
2022/12/17 15:17:42;;;;;;;39.92;15.90;;;;;;;-2.84;84.10;102212.69;5074650;28;20531;-48
2022/12/17 15:20:18;;;;;;;32.40;14.90;;;;;;;-2.78;83.87;102217.78;5074836;28;20139;-47
2022/12/17 15:22:46;;;;;;;35.03;16.63;;;;;;;-2.87;84.33;102210.19;5074818;28;20052;-50
2022/12/17 15:25:16;;;;;;;36.20;15.48;;;;;;;-2.85;84.25;102216.19;5074490;28;20170;-50
2022/12/17 15:27:43;;;;;;;37.33;17.25;;;;;;;-2.92;84.65;102212.84;5074964;28;20055;-53
2022/12/17 15:30:15;;;;;;;37.10;16.92;;;;;;;-2.88;84.50;102208.47;5074321;28;20037;-49
2022/12/17 15:32:43;;;;;;;42.08;17.27;;;;;;;-2.89;84.18;102211.97;5074749;28;20131;-49
2022/12/17 15:35:13;;;;;;;40.67;17.13;;;;;;;-2.91;84.53;102219.78;5074285;28;20052;-49
2022/12/17 15:37:39;;;;;;;37.28;17.38;;;;;;;-3.05;85.13;102221.78;5073705;28;20057;-48
2022/12/17 15:40:09;;;;;;;37.53;17.25;;;;;;;-3.01;85.10;102226.03;5074378;28;20044;-50
2022/12/17 15:45:26;;;;;;;36.05;16.13;;;;;;;-3.01;84.96;102217.41;5073723;28;20131;-50
2022/12/17 15:47:53;;;;;;;41.70;17.08;;;;;;;-3.01;84.45;102227.78;5074151;28;20571;-48
2022/12/17 15:50:21;;;;;;;37.60;16.42;;;;;;;-3.00;84.53;102222.56;5074543;28;20045;-51
2022/12/17 15:52:47;;;;;;;37.25;16.60;;;;;;;-3.05;84.77;102226.13;5074199;28;20044;-49
2022/12/17 15:55:14;;;;;;;39.25;16.50;;;;;;;-3.05;84.74;102224.38;5074021;28;20037;-49
2022/12/17 15:57:41;;;;;;;32.08;14.82;;;;;;;-3.05;85.29;102223.53;5074005;28;20052;-49
2022/12/17 16:00:09;;;;;;;37.53;16.10;;;;;;;-3.10;85.34;102229.66;5074204;28;20045;-47
2022/12/17 16:02:36;;;;;;;38.25;16.35;;;;;;;-3.08;85.56;102233.06;5056374;28;20078;-47
2022/12/17 16:05:03;;;;;;;30.55;15.18;;;;;;;-3.12;85.60;102238.38;5056078;28;20167;-47
2022/12/17 16:07:30;;;;;;;34.90;15.40;;;;;;;-3.06;85.24;102240.84;5073484;28;20064;-49
2022/12/17 16:09:56;;;;;;;35.92;16.02;;;;;;;-3.04;85.31;102240.81;5073892;28;20048;-47
2022/12/17 16:12:25;;;;;;;32.45;14.68;;;;;;;-3.04;85.42;102243.41;5073702;28;20052;-50
2022/12/17 16:14:52;;;;;;;36.78;15.60;;;;;;;-3.06;85.35;102243.44;5056169;28;20048;-48
2022/12/17 16:17:19;;;;;;;35.53;16.10;;;;;;;-3.10;85.45;102240.03;5073647;28;20053;-47
2022/12/17 16:19:46;;;;;;;34.30;14.98;;;;;;;-3.34;85.75;102241.38;5074058;28;20049;-48
2022/12/17 16:22:13;;;;;;;33.33;15.00;;;;;;;-3.24;85.63;102241.19;5073289;28;20050;-47
2022/12/17 16:24:39;;;;;;;35.15;15.57;;;;;;;-3.19;85.97;102244.56;5073982;28;20049;-50
2022/12/17 16:27:06;;;;;;;36.38;15.63;;;;;;;-3.14;85.69;102251.38;5072459;28;20044;-49
2022/12/17 16:29:33;;;;;;;38.55;16.70;;;;;;;-3.12;85.37;102251.34;5073594;28;20127;-52
2022/12/17 16:32:00;;;;;;;37.88;16.17;;;;;;;-3.12;84.94;102248.75;5073429;28;20444;-49
2022/12/17 16:34:26;;;;;;;36.60;15.13;;;;;;;-3.18;85.95;102251.47;5073695;28;20048;-49
2022/12/17 16:36:55;;;;;;;36.53;15.65;;;;;;;-3.17;85.63;102258.38;5073273;28;20432;-51
2022/12/17 16:39:22;;;;;;;34.97;14.23;;;;;;;-3.23;85.88;102251.56;5073238;28;20383;-51
2022/12/17 16:41:48;;;;;;;36.50;14.95;;;;;;;-3.20;85.98;102253.22;5073450;28;20049;-50
2022/12/17 16:44:15;;;;;;;32.47;15.13;;;;;;;-3.21;86.00;102254.97;5073261;28;20132;-52
2022/12/17 16:46:43;;;;;;;37.53;15.82;;;;;;;-3.17;85.71;102258.38;5073410;28;20051;-53
2022/12/17 16:49:15;;;;;;;32.25;15.35;;;;;;;-3.16;85.66;102260.94;5054892;28;20072;-51
2022/12/17 16:51:43;;;;;;;34.28;14.90;;;;;;;-3.26;86.34;102264.56;5072063;28;20068;-52
2022/12/17 16:54:13;;;;;;;33.10;14.73;;;;;;;-3.33;86.44;102257.78;5072118;28;20048;-53
2022/12/17 16:56:41;;;;;;;34.22;14.57;;;;;;;-3.34;86.15;102267.31;5073360;28;20079;-50
2022/12/17 16:59:09;;;;;;;32.80;15.00;;;;;;;-3.25;86.22;102268.06;5073300;28;20056;-49
2022/12/17 17:01:38;;;;;;;34.03;14.25;;;;;;;-3.31;85.67;102262.09;5072670;28;20052;-51
2022/12/17 17:04:06;;;;;;;33.90;14.75;;;;;;;-3.25;85.73;102265.47;5073388;28;20036;-49
2022/12/17 17:06:43;;;;;;;36.42;15.25;;;;;;;-3.26;86.06;102274.97;5072856;28;20131;-49
2022/12/17 17:09:11;;;;;;;32.47;14.05;;;;;;;-3.21;85.33;102269.69;5073322;28;20115;-50
2022/12/17 17:11:38;;;;;;;35.45;15.45;;;;;;;-3.31;85.71;102266.41;5072908;28;20052;-50
2022/12/17 17:14:06;;;;;;;33.65;15.05;;;;;;;-3.28;85.53;102269.78;5072445;28;20044;-50
2022/12/17 17:16:33;;;;;;;32.80;14.82;;;;;;;-3.29;85.51;102259.47;5063413;28;20045;-50
2022/12/17 17:19:00;;;;;;;36.17;14.73;;;;;;;-3.27;85.63;102270.66;5072816;28;20401;-49
2022/12/17 17:21:30;;;;;;;31.67;14.18;;;;;;;-3.24;85.77;102268.00;5072835;28;20048;-52
2022/12/17 17:24:00;;;;;;;33.92;14.45;;;;;;;-3.21;85.54;102267.94;5072740;28;20061;-48
2022/12/17 17:26:30;;;;;;;37.47;15.13;;;;;;;-3.30;85.90;102262.94;5073178;28;20131;-48
2022/12/17 17:28:57;;;;;;;39.00;15.82;;;;;;;-3.26;85.95;102269.78;5072954;28;20551;-48
2022/12/17 17:31:24;;;;;;;35.83;15.98;;;;;;;-3.35;86.01;102268.19;5072741;28;20055;-47
2022/12/17 17:33:56;;;;;;;36.67;15.77;;;;;;;-3.28;85.83;102269.78;5072895;28;20044;-52
2022/12/17 17:36:26;;;;;;;34.22;15.60;;;;;;;-3.31;86.02;102271.59;5072883;28;20049;-47
2022/12/17 17:38:58;;;;;;;37.70;16.23;;;;;;;-3.28;85.53;102289.72;5073200;28;20502;-49
2022/12/17 17:41:27;;;;;;;33.25;15.25;;;;;;;-3.32;85.43;102290.66;5072304;28;20049;-47
2022/12/17 17:43:57;;;;;;;36.20;16.48;;;;;;;-3.39;85.97;102287.31;5072666;28;20375;-51
2022/12/17 17:46:25;;;;;;;35.95;16.35;;;;;;;-3.37;85.93;102288.13;5072561;28;20043;-50
2022/12/17 17:48:56;;;;;;;34.55;16.35;;;;;;;-3.32;85.47;102282.88;5055053;28;20044;-51
2022/12/17 17:51:25;;;;;;;38.65;17.10;;;;;;;-3.31;85.62;102288.03;5072555;28;20056;-51
2022/12/17 17:54:04;;;;;;;36.17;15.48;;;;;;;-3.31;85.27;102279.38;5072801;28;20497;-51
2022/12/17 17:56:37;;;;;;;35.90;16.25;;;;;;;-3.33;85.33;102276.84;5055020;28;20489;-50
2022/12/17 17:59:06;;;;;;;35.15;15.98;;;;;;;-3.37;84.92;102274.31;5072850;28;20489;-51
2022/12/17 18:01:36;;;;;;;39.60;16.48;;;;;;;-3.39;84.84;102279.50;5058444;28;20047;-48
2022/12/17 18:04:05;;;;;;;40.50;16.88;;;;;;;-3.53;85.33;102274.59;5076343;28;20037;-49
2022/12/17 18:06:36;;;;;;;39.35;16.25;;;;;;;-3.44;85.37;102276.13;5076013;28;20056;-47
2022/12/17 18:09:03;;;;;;;39.25;16.83;;;;;;;-3.44;85.42;102283.06;5076056;28;20052;-51
2022/12/17 18:11:31;;;;;;;39.80;17.80;;;;;;;-3.45;85.37;102279.63;5076465;28;20052;-50
2022/12/17 18:13:59;;;;;;;36.28;16.45;;;;;;;-3.39;85.17;102283.84;5075508;28;20070;-51
2022/12/17 18:16:30;;;;;;;36.88;16.98;;;;;;;-3.33;85.25;102273.34;5076129;28;20485;-50
2022/12/17 18:19:02;;;;;;;34.97;17.03;;;;;;;-3.47;85.34;102271.88;5076243;28;20543;-49
2022/12/17 18:21:30;;;;;;;40.17;17.60;;;;;;;-3.44;84.74;102281.31;5076146;28;20063;-50
2022/12/17 18:23:59;;;;;;;37.83;17.25;;;;;;;-3.49;85.02;102280.56;5075963;28;20103;-50
2022/12/17 18:26:29;;;;;;;37.60;16.05;;;;;;;-3.54;85.39;102284.97;5075982;28;20051;-50
2022/12/17 18:28:57;;;;;;;47.00;18.55;;;;;;;-3.56;85.39;102278.97;5075923;28;20047;-50
2022/12/17 18:31:25;;;;;;;42.67;17.63;;;;;;;-3.62;85.70;102282.53;5075746;28;20044;-51
2022/12/17 18:33:56;;;;;;;42.45;17.40;;;;;;;-3.67;85.15;102282.56;5058076;28;20142;-50
2022/12/17 18:36:26;;;;;;;48.80;18.20;;;;;;;-3.76;85.81;102287.06;5076198;28;20102;-49
2022/12/17 18:38:56;;;;;;;41.90;16.35;;;;;;;-3.73;85.61;102274.03;5075593;28;20059;-50
2022/12/17 18:44:13;;;;;;;39.95;17.15;;;;;;;-3.63;85.14;102285.97;5075148;28;20068;-48
2022/12/17 18:46:39;;;;;;;38.33;17.20;;;;;;;-3.60;85.11;102285.94;5057995;28;20044;-49
2022/12/17 18:49:09;;;;;;;44.85;18.45;;;;;;;-3.67;85.18;102292.97;5075401;28;20056;-49
2022/12/17 18:51:38;;;;;;;41.53;17.67;;;;;;;-3.63;84.73;102285.13;5058252;28;20370;-50
2022/12/17 18:54:13;;;;;;;45.45;18.40;;;;;;;-3.59;84.53;102297.16;5075187;28;20563;-49
2022/12/17 18:56:40;;;;;;;43.58;19.30;;;;;;;-3.67;84.67;102302.50;5057622;28;20444;-51
2022/12/17 18:59:28;;;;;;;44.20;17.73;;;;;;;-3.66;84.96;102304.19;5075313;28;20040;-50
2022/12/17 19:01:55;;;;;;;43.30;17.50;;;;;;;-3.74;85.41;102303.47;5075211;28;20044;-50
2022/12/17 19:04:23;;;;;;;45.92;18.73;;;;;;;-3.72;85.00;102305.13;5075210;28;20037;-48
2022/12/17 19:06:52;;;;;;;41.53;18.00;;;;;;;-3.77;85.30;102306.94;5074522;28;20044;-50
2022/12/17 19:09:24;;;;;;;42.17;18.20;;;;;;;-3.87;85.23;102301.03;5075350;28;20049;-49
2022/12/17 19:11:51;;;;;;;;;;;;;;;-3.84;85.16;102305.31;5057552;28;20051;-48
2022/12/17 19:14:20;;;;;;;39.78;16.45;;;;;;;-3.73;85.21;102313.81;5074748;28;19943;-49
2022/12/17 19:16:49;;;;;;;48.83;17.83;;;;;;;-3.65;84.96;102316.28;5056961;28;20055;-50
2022/12/17 19:19:17;;;;;;;42.88;17.65;;;;;;;-3.71;84.85;102325.03;5075215;28;20041;-49
2022/12/17 19:21:45;;;;;;;43.25;18.65;;;;;;;-3.76;84.59;102313.84;5075023;28;20048;-50
2022/12/17 19:24:14;;;;;;;49.10;18.85;;;;;;;-3.73;84.96;102321.59;5074816;28;20044;-51
2022/12/17 19:26:42;;;;;;;45.85;19.85;;;;;;;-3.75;84.99;102309.50;5074992;28;20063;-50
2022/12/17 19:29:10;;;;;;;51.50;18.77;;;;;;;-3.78;85.21;102307.84;5074469;28;20094;-50
2022/12/17 19:31:37;;;;;;;49.58;20.48;;;;;;;-3.79;84.71;102310.44;5074839;28;20051;-49
2022/12/17 19:34:06;;;;;;;55.03;20.88;;;;;;;-3.86;85.32;102318.34;5074301;28;20041;-51
2022/12/17 19:36:35;;;;;;;56.47;19.27;;;;;;;-3.91;85.71;102311.47;5074584;28;20505;-51
2022/12/17 19:39:05;;;;;;;52.67;19.40;;;;;;;-3.86;85.17;102313.16;5074743;28;20052;-52
2022/12/17 19:41:33;;;;;;;52.95;20.20;;;;;;;-3.86;85.41;102312.25;5074398;28;20068;-49
2022/12/17 19:44:02;;;;;;;59.40;19.52;;;;;;;-3.91;85.62;102309.75;5074530;28;20057;-51
2022/12/17 19:46:31;;;;;;;51.35;20.30;;;;;;;-3.93;85.45;102313.25;5074002;28;20071;-49
2022/12/17 19:48:57;;;;;;;53.53;20.13;;;;;;;-3.87;85.47;102313.16;5074406;28;20045;-51
2022/12/17 19:51:26;;;;;;;62.05;20.90;;;;;;;-3.87;85.57;102314.00;5056718;28;20048;-47
2022/12/17 19:53:54;;;;;;;65.00;22.75;;;;;;;-3.80;85.20;102314.78;5074391;28;20044;-47
2022/12/17 19:59:01;;;;;;;71.25;23.15;;;;;;;-3.91;85.74;102320.13;5111015;27;20729;-50
2022/12/17 20:01:31;;;;;;;75.03;24.02;;;;;;;-3.82;85.43;102320.84;5111030;28;20054;-49
2022/12/17 20:03:58;;;;;;;72.65;25.00;;;;;;;-3.88;85.45;102321.81;5102068;28;20090;-50
2022/12/17 20:06:30;;;;;;;73.15;24.92;;;;;;;-3.77;85.40;102332.03;5090332;28;20052;-49
2022/12/17 20:08:57;;;;;;;79.82;25.27;;;;;;;-3.80;85.01;102329.47;5098701;28;20040;-50
2022/12/17 20:11:32;;;;;;;75.43;24.35;;;;;;;-3.80;84.97;102327.75;5111127;28;20048;-48
2022/12/17 20:14:09;;;;;;;83.43;26.55;;;;;;;-3.73;84.66;102341.47;5103328;28;20142;-49
2022/12/17 20:16:40;;;;;;;75.88;24.38;;;;;;;-3.96;85.74;102336.63;5110920;28;20044;-49
2022/12/17 20:19:11;;;;;;;73.03;26.48;;;;;;;-3.90;85.53;102337.38;5110047;28;20048;-49
2022/12/17 20:21:37;;;;;;;84.63;26.67;;;;;;;-3.76;85.30;102337.19;5110909;28;20098;-50
2022/12/17 20:24:05;;;;;;;83.13;26.98;;;;;;;-3.84;85.61;102340.78;5092349;28;20408;-48
2022/12/17 20:26:32;;;;;;;89.03;27.88;;;;;;;-3.76;85.35;102341.53;5090328;28;20554;-48
2022/12/17 20:28:59;;;;;;;84.40;27.52;;;;;;;-3.74;84.94;102337.19;5106313;28;20439;-48
2022/12/17 20:31:27;;;;;;;88.97;27.77;;;;;;;-3.73;84.96;102346.66;5082007;28;20111;-48
2022/12/17 20:33:54;;;;;;;88.53;26.40;;;;;;;-3.67;84.63;102351.78;5115624;27;20036;-49
2022/12/17 20:36:22;;;;;;;83.03;27.23;;;;;;;-3.73;84.38;102347.53;5113177;27;20040;-49
2022/12/17 20:38:49;;;;;;;84.57;27.23;;;;;;;-3.92;85.32;102353.84;5113799;27;20512;-51
2022/12/17 20:41:18;;;;;;;81.45;27.33;;;;;;;-3.76;85.15;102357.09;5115518;27;20035;-47
2022/12/17 20:43:48;;;;;;;75.72;25.90;;;;;;;-3.70;85.33;102352.66;5111970;28;20050;-48
2022/12/17 20:46:17;;;;;;;78.82;26.48;;;;;;;-3.71;85.30;102358.75;5111878;28;20051;-49
2022/12/17 20:48:44;;;;;;;85.00;26.38;;;;;;;-3.63;85.31;102353.44;5108604;28;20047;-49
2022/12/17 20:51:15;;;;;;;78.80;26.73;;;;;;;-3.64;84.81;102353.44;5130729;28;20043;-50
2022/12/17 20:53:43;;;;;;;82.73;24.77;;;;;;;-3.78;85.53;102366.59;5130480;27;20119;-47
2022/12/17 20:56:13;;;;;;;71.38;24.88;;;;;;;-3.80;85.70;102355.41;5130639;27;20176;-49
2022/12/17 20:58:41;;;;;;;63.00;24.83;;;;;;;-3.73;85.48;102373.47;5130455;27;20046;-48
2022/12/17 21:01:15;;;;;;;77.93;24.98;;;;;;;-3.72;85.18;102364.78;5124596;28;20044;-49
2022/12/17 21:03:42;;;;;;;67.60;23.23;;;;;;;-3.73;85.13;102355.31;5108477;28;20659;-48
2022/12/17 21:06:14;;;;;;;79.22;24.08;;;;;;;-3.67;85.21;102365.59;5106352;28;20031;-48
2022/12/17 21:08:42;;;;;;;74.10;25.00;;;;;;;-3.70;85.17;102360.44;5084945;28;20040;-50
2022/12/17 21:11:15;;;;;;;66.28;23.25;;;;;;;-3.78;85.63;102349.34;5075707;28;20043;-51
2022/12/17 21:13:42;;;;;;;69.55;23.02;;;;;;;-3.70;85.22;102352.66;5084113;28;20052;-51
2022/12/17 21:16:12;;;;;;;63.70;24.05;;;;;;;-3.71;85.84;102352.66;5096297;28;20482;-48
2022/12/17 21:18:39;;;;;;;69.45;23.48;;;;;;;-3.65;84.67;102349.16;5095972;28;20070;-48
2022/12/17 21:21:10;;;;;;;71.28;23.92;;;;;;;-3.63;85.23;102361.22;5096304;28;20048;-47
2022/12/17 21:23:38;;;;;;;66.45;22.65;;;;;;;-3.61;84.57;102364.63;5094760;28;20044;-50
2022/12/17 21:26:10;;;;;;;68.10;24.13;;;;;;;-3.61;84.57;102359.44;5077638;28;20060;-48
2022/12/17 21:28:37;;;;;;;;;;;;;;;-3.52;84.43;102363.66;5095982;28;20101;-50
2022/12/17 21:31:04;;;;;;;58.80;20.73;;;;;;;-3.62;84.74;102357.75;5096008;28;19926;-50
2022/12/17 21:33:32;;;;;;;63.42;22.23;;;;;;;-3.57;84.16;102347.28;5095425;28;20044;-49
2022/12/17 21:36:00;;;;;;;59.53;21.88;;;;;;;-3.65;84.41;102343.97;5095969;28;20048;-51
2022/12/17 21:38:28;;;;;;;65.40;21.98;;;;;;;-3.73;84.77;102352.72;5094548;28;20051;-49
2022/12/17 21:40:55;;;;;;;58.78;21.17;;;;;;;-3.71;84.81;102343.19;5095928;28;20047;-50
2022/12/17 21:43:22;;;;;;;63.47;20.92;;;;;;;-3.62;84.32;102352.56;5095588;28;20040;-50
2022/12/17 21:45:56;;;;;;;49.92;19.80;;;;;;;-3.73;84.18;102352.72;5095578;28;20047;-50
2022/12/17 21:48:23;;;;;;;63.95;20.05;;;;;;;-3.70;84.13;102349.22;5095569;28;20047;-48
2022/12/17 21:50:50;;;;;;;52.42;20.33;;;;;;;-3.69;84.01;102350.94;5077718;28;20060;-49
2022/12/17 21:53:17;;;;;;;55.83;19.98;;;;;;;-3.66;83.61;102353.47;5094534;28;20050;-47
2022/12/17 21:55:43;;;;;;;48.58;18.90;;;;;;;-3.74;83.81;102352.75;5095317;28;20036;-47
2022/12/17 21:58:11;;;;;;;54.30;19.40;;;;;;;-3.76;83.84;102352.75;5093682;28;20063;-49
2022/12/17 22:00:38;;;;;;;49.70;18.20;;;;;;;-3.72;83.47;102353.56;5095647;28;20109;-48
2022/12/17 22:03:05;;;;;;;43.20;16.40;;;;;;;-3.89;83.69;102354.69;5094852;28;20050;-47
2022/12/17 22:05:33;;;;;;;44.50;16.60;;;;;;;-3.80;83.64;102356.28;5095323;28;20520;-48
2022/12/17 22:08:00;;;;;;;48.05;16.15;;;;;;;-3.73;83.27;102355.31;5094641;28;20040;-48
2022/12/17 22:10:27;;;;;;;57.58;17.52;;;;;;;-3.74;82.96;102353.59;5095444;28;20101;-47
2022/12/17 22:15:41;;;;;;;45.45;16.10;;;;;;;-3.75;82.81;102366.56;5094001;28;20473;-47
2022/12/17 22:18:08;;;;;;;41.17;16.05;;;;;;;-3.86;83.21;102377.09;5095132;28;20068;-48
2022/12/17 22:20:35;;;;;;;44.05;16.20;;;;;;;-3.77;82.65;102369.19;5093730;28;20040;-48
2022/12/17 22:23:03;;;;;;;44.40;15.52;;;;;;;-3.75;82.18;102371.75;5095174;28;20048;-48
2022/12/17 22:25:30;;;;;;;38.58;15.00;;;;;;;-3.70;82.04;102357.84;5094573;28;20083;-47
2022/12/17 22:27:56;;;;;;;45.92;16.40;;;;;;;-3.72;82.56;102364.78;5093785;28;20082;-48
2022/12/17 22:33:10;;;;;;;43.00;14.95;;;;;;;-3.63;80.88;102362.97;5093296;28;20127;-48
2022/12/17 22:35:41;;;;;;;40.60;15.52;;;;;;;-3.65;81.40;102370.75;5094876;28;20097;-49
2022/12/17 22:38:08;;;;;;;38.63;14.17;;;;;;;-3.65;81.70;102383.72;5094585;28;20051;-48
2022/12/17 22:40:37;;;;;;;34.40;13.05;;;;;;;-3.50;80.76;102375.69;5093450;28;20059;-48
2022/12/17 22:43:35;;;;;;;33.13;14.00;;;;;;;-3.61;81.47;102384.53;5094480;28;20078;-47
2022/12/17 22:45:58;;;;;;;34.15;13.68;;;;;;;-3.49;81.02;102381.78;5094171;28;20497;-49
2022/12/17 22:48:25;;;;;;;37.10;14.10;;;;;;;-3.72;81.39;102382.09;5094195;28;20493;-50
2022/12/17 22:50:53;;;;;;;33.10;13.38;;;;;;;-3.55;81.30;102387.88;5059744;28;20475;-47
2022/12/17 22:53:20;;;;;;;30.25;12.57;;;;;;;-3.65;80.50;102388.91;5094073;28;20425;-48
2022/12/17 22:55:48;;;;;;;32.08;12.88;;;;;;;-3.70;80.93;102396.75;5094410;28;20043;-50
2022/12/17 22:58:15;;;;;;;31.63;12.85;;;;;;;-3.60;80.80;102397.50;5094124;28;20489;-47
2022/12/17 23:00:42;;;;;;;35.88;12.60;;;;;;;-3.55;80.65;102390.47;5076363;28;20048;-47
2022/12/17 23:03:09;;;;;;;31.48;12.57;;;;;;;-3.57;80.45;102393.97;5094445;28;20048;-47
2022/12/17 23:05:36;;;;;;;34.83;12.68;;;;;;;-3.50;80.81;102399.06;5092651;28;20044;-47
2022/12/17 23:08:02;;;;;;;30.25;12.90;;;;;;;-3.57;80.77;102394.84;5092420;28;20578;-47
2022/12/17 23:10:29;;;;;;;29.23;12.27;;;;;;;-3.60;80.76;102397.50;5092910;28;20040;-49
2022/12/17 23:12:56;;;;;;;30.60;12.68;;;;;;;-3.80;81.07;102395.19;5094040;28;20048;-47
2022/12/17 23:15:28;;;;;;;26.60;11.70;;;;;;;-3.74;81.12;102395.09;5093028;28;20110;-47
2022/12/17 23:17:59;;;;;;;30.70;11.32;;;;;;;-3.71;81.55;102391.56;5092241;28;20432;-48
2022/12/17 23:20:27;;;;;;;32.72;12.25;;;;;;;-3.58;80.67;102387.94;5093858;28;20499;-49
2022/12/17 23:22:54;;;;;;;28.52;12.25;;;;;;;-3.68;81.10;102387.22;5075790;28;20048;-48
2022/12/17 23:25:21;;;;;;;29.98;11.40;;;;;;;-3.69;81.00;102389.84;5094120;28;20048;-47
2022/12/17 23:27:49;;;;;;;33.38;12.40;;;;;;;-3.73;81.68;102390.75;5092471;28;20048;-47
2022/12/17 23:30:16;;;;;;;31.90;12.18;;;;;;;-3.73;81.69;102391.63;5092458;28;20405;-47
2022/12/17 23:32:44;;;;;;;31.42;11.98;;;;;;;-3.78;82.02;102390.84;5093439;28;20134;-55
2022/12/17 23:35:12;;;;;;;32.95;12.25;;;;;;;-3.73;82.05;102388.16;5093716;28;20036;-47
2022/12/17 23:37:39;;;;;;;31.92;12.93;;;;;;;-3.62;81.81;102395.78;5092579;28;20042;-48
2022/12/17 23:40:11;;;;;;;29.52;12.15;;;;;;;-3.80;82.18;102394.31;5092419;28;20051;-48
2022/12/17 23:42:37;;;;;;;30.15;11.98;;;;;;;-3.84;81.84;102382.28;5093798;28;20044;-47
2022/12/17 23:45:05;;;;;;;31.60;11.63;;;;;;;-3.65;81.62;102383.72;5093432;28;20105;-47
2022/12/17 23:47:33;;;;;;;30.90;11.63;;;;;;;-3.71;81.47;102378.59;5093318;28;20040;-47
2022/12/17 23:50:00;;;;;;;30.50;11.63;;;;;;;-3.69;81.16;102376.88;5093338;28;20043;-48
2022/12/17 23:52:27;;;;;;;28.10;11.75;;;;;;;-3.67;80.58;102377.72;5093296;28;20043;-47
2022/12/17 23:54:53;;;;;;;27.92;11.30;;;;;;;-3.66;80.81;102382.00;5093183;28;20400;-48
2022/12/17 23:57:20;;;;;;;26.52;11.23;;;;;;;-3.63;80.76;102383.72;5093334;28;20143;-49
2022/12/17 23:59:47;;;;;;;30.17;12.18;;;;;;;-3.64;80.43;102364.66;5093156;28;20040;-48
